Time,TemperatureF,DewpointF,PressureIn,WindDirection,WindDirectionDegrees,WindSpeedMPH,WindSpeedGustMPH,Humidity,HourlyPrecipIn,Conditions,Clouds,dailyrainin,SoftwareType,DateUTC
2016-02-13 00:13:00,39.0,11.0,-100.00,North,0,17.0,24.0,31,-99.99,,,-99.99,,2016-02-13 07:13:00,
2016-02-13 00:24:00,39.0,11.0,-100.00,North,0,17.0,24.0,31,-99.99,,,-99.99,,2016-02-13 07:24:00,
2016-02-13 01:13:00,39.0,12.0,-100.00,North,0,16.0,23.0,32,-99.99,,,-99.99,,2016-02-13 08:13:00,
2016-02-13 01:23:00,39.0,12.0,-100.00,North,0,16.0,23.0,32,-99.99,,,-99.99,,2016-02-13 08:23:00,
2016-02-13 02:33:00,36.0,9.0,-100.00,North,0,8.0,21.0,32,-99.99,,,-99.99,,2016-02-13 09:33:00,
2016-02-13 02:44:00,36.0,9.0,-100.00,North,0,8.0,21.0,32,-99.99,,,-99.99,,2016-02-13 09:44:00,
2016-02-13 03:13:00,37.0,13.0,-100.00,North,0,5.0,11.0,36,-99.99,,,-99.99,,2016-02-13 10:13:00,
2016-02-13 03:24:00,37.0,13.0,-100.00,North,0,5.0,11.0,36,-99.99,,,-99.99,,2016-02-13 10:24:00,
2016-02-13 03:36:00,37.0,13.0,-100.00,North,0,5.0,11.0,36,-99.99,,,-99.99,,2016-02-13 10:36:00,
2016-02-13 03:44:00,37.0,13.0,-100.00,North,0,5.0,11.0,36,-99.99,,,-99.99,,2016-02-13 10:44:00,
2016-02-13 04:23:00,39.0,11.0,-100.00,North,0,14.0,21.0,31,-99.99,,,-99.99,,2016-02-13 11:23:00,
2016-02-13 05:13:00,40.0,12.0,-100.00,North,0,19.0,26.0,31,-99.99,,,-99.99,,2016-02-13 12:13:00,
2016-02-13 05:23:00,40.0,12.0,-100.00,North,0,19.0,26.0,31,-99.99,,,-99.99,,2016-02-13 12:23:00,
2016-02-13 06:13:00,39.0,12.0,-100.00,North,0,17.0,25.0,33,-99.99,,,-99.99,,2016-02-13 13:13:00,
2016-02-13 07:13:00,37.0,15.0,-100.00,North,0,29.0,41.0,40,-99.99,,,-99.99,,2016-02-13 14:13:00,
2016-02-13 07:24:00,37.0,15.0,-100.00,North,0,29.0,41.0,40,-99.99,,,-99.99,,2016-02-13 14:24:00,
2016-02-13 08:13:00,38.0,18.0,-100.00,North,0,31.0,43.0,43,-99.99,,,-99.99,,2016-02-13 15:13:00,
2016-02-13 08:23:00,38.0,18.0,-100.00,North,0,31.0,43.0,43,-99.99,,,-99.99,,2016-02-13 15:23:00,
2016-02-13 08:34:00,38.0,18.0,-100.00,North,0,31.0,43.0,43,-99.99,,,-99.99,,2016-02-13 15:34:00,
2016-02-13 08:44:00,38.0,18.0,-100.00,North,0,31.0,43.0,43,-99.99,,,-99.99,,2016-02-13 15:44:00,
2016-02-13 09:13:00,39.0,15.0,-100.00,North,0,25.0,-999.0,37,-99.99,,,-99.99,,2016-02-13 16:13:00,
2016-02-13 09:23:00,39.0,15.0,-100.00,North,0,25.0,36.0,37,-99.99,,,-99.99,,2016-02-13 16:23:00,
2016-02-13 10:23:00,41.0,15.0,-100.00,North,0,20.0,34.0,35,-99.99,,,-99.99,,2016-02-13 17:23:00,
2016-02-13 11:13:00,42.0,16.0,-100.00,North,0,21.0,34.0,35,-99.99,,,-99.99,,2016-02-13 18:13:00,
2016-02-13 11:24:00,42.0,16.0,-100.00,North,0,21.0,34.0,35,-99.99,,,-99.99,,2016-02-13 18:24:00,
2016-02-13 11:34:00,42.0,16.0,-100.00,North,0,21.0,34.0,35,-99.99,,,-99.99,,2016-02-13 18:34:00,
2016-02-13 11:44:00,42.0,16.0,-100.00,North,0,21.0,34.0,35,-99.99,,,-99.99,,2016-02-13 18:44:00,
2016-02-13 12:14:00,43.0,13.0,-100.00,North,0,15.0,31.0,29,-99.99,,,-99.99,,2016-02-13 19:14:00,
2016-02-13 12:34:00,43.0,13.0,-100.00,North,0,15.0,31.0,29,-99.99,,,-99.99,,2016-02-13 19:34:00,
2016-02-13 12:44:00,43.0,13.0,-100.00,North,0,15.0,31.0,29,-99.99,,,-99.99,,2016-02-13 19:44:00,
2016-02-13 15:13:00,31.0,11.0,-100.00,North,0,20.0,34.0,43,-99.99,,,-99.99,,2016-02-13 22:13:00,
2016-02-13 15:23:00,31.0,11.0,-100.00,North,0,20.0,34.0,43,-99.99,,,-99.99,,2016-02-13 22:23:00,
2016-02-13 16:24:00,26.0,17.0,-100.00,North,0,20.0,38.0,67,-99.99,,,-99.99,,2016-02-13 23:24:00,
2016-02-13 16:34:00,26.0,17.0,-100.00,North,0,20.0,38.0,67,-99.99,,,-99.99,,2016-02-13 23:34:00,
2016-02-13 16:44:00,26.0,17.0,-100.00,North,0,20.0,38.0,67,-99.99,,,-99.99,,2016-02-13 23:44:00,